sensor_id;sensor_type;location;lat;lon;timestamp;P1;durP1;ratioP1;P2;durP2;ratioP2
16189;SDS011;41754;51.498;7.540;2023-04-07T00:01:21;5.03;;;4.63;;
16189;SDS011;41754;51.498;7.540;2023-04-07T00:03:49;4.97;;;4.50;;
16189;SDS011;41754;51.498;7.540;2023-04-07T00:06:17;5.43;;;4.93;;
16189;SDS011;41754;51.498;7.540;2023-04-07T00:08:46;4.93;;;4.53;;
16189;SDS011;41754;51.498;7.540;2023-04-07T00:11:14;5.50;;;5.00;;
16189;SDS011;41754;51.498;7.540;2023-04-07T00:13:42;5.47;;;4.97;;
16189;SDS011;41754;51.498;7.540;2023-04-07T00:16:09;4.80;;;4.30;;
16189;SDS011;41754;51.498;7.540;2023-04-07T00:18:37;5.40;;;4.90;;
16189;SDS011;41754;51.498;7.540;2023-04-07T00:21:05;5.40;;;4.90;;
16189;SDS011;41754;51.498;7.540;2023-04-07T00:23:33;5.10;;;4.60;;
16189;SDS011;41754;51.498;7.540;2023-04-07T00:26:02;4.57;;;4.17;;
16189;SDS011;41754;51.498;7.540;2023-04-07T00:28:30;5.23;;;4.83;;
16189;SDS011;41754;51.498;7.540;2023-04-07T00:30:58;5.13;;;4.73;;
16189;SDS011;41754;51.498;7.540;2023-04-07T00:33:26;5.40;;;4.87;;
16189;SDS011;41754;51.498;7.540;2023-04-07T00:35:54;5.03;;;4.63;;
16189;SDS011;41754;51.498;7.540;2023-04-07T00:38:23;5.90;;;5.40;;
16189;SDS011;41754;51.498;7.540;2023-04-07T00:40:55;5.43;;;4.93;;
16189;SDS011;41754;51.498;7.540;2023-04-07T00:43:25;5.57;;;5.07;;
16189;SDS011;41754;51.498;7.540;2023-04-07T00:45:53;5.23;;;4.73;;
16189;SDS011;41754;51.498;7.540;2023-04-07T00:48:21;5.90;;;5.13;;
16189;SDS011;41754;51.498;7.540;2023-04-07T00:50:49;5.50;;;5.00;;
16189;SDS011;41754;51.498;7.540;2023-04-07T00:53:17;5.90;;;5.30;;
16189;SDS011;41754;51.498;7.540;2023-04-07T00:55:47;5.50;;;5.00;;
16189;SDS011;41754;51.498;7.540;2023-04-07T00:58:15;5.63;;;5.13;;
16189;SDS011;41754;51.498;7.540;2023-04-07T01:00:47;5.30;;;4.80;;
16189;SDS011;41754;51.498;7.540;2023-04-07T01:03:19;5.27;;;4.77;;
16189;SDS011;41754;51.498;7.540;2023-04-07T01:05:53;5.00;;;4.50;;
16189;SDS011;41754;51.498;7.540;2023-04-07T01:08:29;5.00;;;4.60;;
16189;SDS011;41754;51.498;7.540;2023-04-07T01:11:04;5.40;;;4.90;;
16189;SDS011;41754;51.498;7.540;2023-04-07T01:13:39;5.30;;;4.80;;
16189;SDS011;41754;51.498;7.540;2023-04-07T01:16:35;5.80;;;5.30;;
16189;SDS011;41754;51.498;7.540;2023-04-07T01:19:13;5.10;;;4.70;;
16189;SDS011;41754;51.498;7.540;2023-04-07T01:21:52;5.53;;;4.90;;
16189;SDS011;41754;51.498;7.540;2023-04-07T01:24:33;5.80;;;5.13;;
16189;SDS011;41754;51.498;7.540;2023-04-07T01:27:14;6.43;;;5.73;;
16189;SDS011;41754;51.498;7.540;2023-04-07T01:29:49;6.27;;;5.67;;
16189;SDS011;41754;51.498;7.540;2023-04-07T01:32:20;6.87;;;6.17;;
16189;SDS011;41754;51.498;7.540;2023-04-07T01:34:51;6.33;;;5.73;;
16189;SDS011;41754;51.498;7.540;2023-04-07T01:37:20;5.60;;;5.10;;
16189;SDS011;41754;51.498;7.540;2023-04-07T01:39:50;5.77;;;5.27;;
16189;SDS011;41754;51.498;7.540;2023-04-07T01:42:18;5.77;;;5.27;;
16189;SDS011;41754;51.498;7.540;2023-04-07T01:44:47;6.03;;;5.43;;
16189;SDS011;41754;51.498;7.540;2023-04-07T01:47:18;6.43;;;5.83;;
16189;SDS011;41754;51.498;7.540;2023-04-07T01:49:47;6.37;;;5.10;;
16189;SDS011;41754;51.498;7.540;2023-04-07T01:52:17;6.23;;;5.63;;
16189;SDS011;41754;51.498;7.540;2023-04-07T01:54:45;6.27;;;5.67;;
16189;SDS011;41754;51.498;7.540;2023-04-07T01:57:13;6.37;;;5.43;;
16189;SDS011;41754;51.498;7.540;2023-04-07T01:59:42;6.40;;;5.80;;
16189;SDS011;41754;51.498;7.540;2023-04-07T02:02:10;6.17;;;5.57;;
16189;SDS011;41754;51.498;7.540;2023-04-07T02:04:42;6.37;;;5.77;;
16189;SDS011;41754;51.498;7.540;2023-04-07T02:07:17;7.80;;;7.00;;
16189;SDS011;41754;51.498;7.540;2023-04-07T02:09:49;7.13;;;6.43;;
16189;SDS011;41754;51.498;7.540;2023-04-07T02:12:20;7.47;;;6.77;;
16189;SDS011;41754;51.498;7.540;2023-04-07T02:15:01;7.37;;;6.67;;
16189;SDS011;41754;51.498;7.540;2023-04-07T02:17:31;8.20;;;7.47;;
16189;SDS011;41754;51.498;7.540;2023-04-07T02:20:02;7.60;;;6.90;;
16189;SDS011;41754;51.498;7.540;2023-04-07T02:22:33;7.67;;;6.97;;
16189;SDS011;41754;51.498;7.540;2023-04-07T02:25:01;8.90;;;7.77;;
16189;SDS011;41754;51.498;7.540;2023-04-07T02:27:29;7.97;;;7.17;;
16189;SDS011;41754;51.498;7.540;2023-04-07T02:29:57;8.00;;;7.30;;
16189;SDS011;41754;51.498;7.540;2023-04-07T02:32:24;8.40;;;7.43;;
16189;SDS011;41754;51.498;7.540;2023-04-07T02:34:52;10.43;;;8.60;;
16189;SDS011;41754;51.498;7.540;2023-04-07T02:37:22;9.60;;;8.57;;
16189;SDS011;41754;51.498;7.540;2023-04-07T02:39:49;10.03;;;9.03;;
16189;SDS011;41754;51.498;7.540;2023-04-07T02:42:18;9.73;;;8.73;;
16189;SDS011;41754;51.498;7.540;2023-04-07T02:44:47;9.33;;;8.43;;
16189;SDS011;41754;51.498;7.540;2023-04-07T02:47:15;10.47;;;9.40;;
16189;SDS011;41754;51.498;7.540;2023-04-07T02:49:43;10.10;;;9.10;;
16189;SDS011;41754;51.498;7.540;2023-04-07T02:52:11;9.47;;;8.37;;
16189;SDS011;41754;51.498;7.540;2023-04-07T02:54:40;10.43;;;9.43;;
16189;SDS011;41754;51.498;7.540;2023-04-07T02:57:09;9.60;;;8.70;;
16189;SDS011;41754;51.498;7.540;2023-04-07T02:59:38;10.07;;;9.07;;
16189;SDS011;41754;51.498;7.540;2023-04-07T03:02:08;11.00;;;9.73;;
16189;SDS011;41754;51.498;7.540;2023-04-07T03:04:36;10.60;;;9.37;;
16189;SDS011;41754;51.498;7.540;2023-04-07T03:07:04;10.20;;;9.10;;
16189;SDS011;41754;51.498;7.540;2023-04-07T03:09:32;10.03;;;9.00;;
16189;SDS011;41754;51.498;7.540;2023-04-07T03:12:02;10.23;;;9.07;;
16189;SDS011;41754;51.498;7.540;2023-04-07T03:14:33;9.10;;;8.20;;
16189;SDS011;41754;51.498;7.540;2023-04-07T03:17:02;9.80;;;8.77;;
16189;SDS011;41754;51.498;7.540;2023-04-07T03:19:31;10.23;;;8.37;;
16189;SDS011;41754;51.498;7.540;2023-04-07T03:21:58;9.47;;;8.57;;
16189;SDS011;41754;51.498;7.540;2023-04-07T03:24:31;9.70;;;8.80;;
16189;SDS011;41754;51.498;7.540;2023-04-07T03:27:02;9.47;;;8.47;;
16189;SDS011;41754;51.498;7.540;2023-04-07T03:29:41;10.43;;;9.07;;
16189;SDS011;41754;51.498;7.540;2023-04-07T03:32:12;9.87;;;8.97;;
16189;SDS011;41754;51.498;7.540;2023-04-07T03:34:40;9.60;;;8.70;;
16189;SDS011;41754;51.498;7.540;2023-04-07T03:37:08;9.50;;;8.60;;
16189;SDS011;41754;51.498;7.540;2023-04-07T03:39:39;9.33;;;8.13;;
16189;SDS011;41754;51.498;7.540;2023-04-07T03:42:22;10.03;;;9.03;;
16189;SDS011;41754;51.498;7.540;2023-04-07T03:44:55;10.83;;;9.20;;
16189;SDS011;41754;51.498;7.540;2023-04-07T03:47:23;8.70;;;7.90;;
16189;SDS011;41754;51.498;7.540;2023-04-07T03:49:56;9.30;;;8.40;;
16189;SDS011;41754;51.498;7.540;2023-04-07T03:52:25;10.10;;;9.10;;
16189;SDS011;41754;51.498;7.540;2023-04-07T03:55:00;9.23;;;8.27;;
16189;SDS011;41754;51.498;7.540;2023-04-07T03:57:31;8.83;;;8.00;;
16189;SDS011;41754;51.498;7.540;2023-04-07T04:00:00;9.57;;;8.57;;
16189;SDS011;41754;51.498;7.540;2023-04-07T04:02:41;9.17;;;8.27;;
16189;SDS011;41754;51.498;7.540;2023-04-07T04:05:14;9.60;;;8.67;;
16189;SDS011;41754;51.498;7.540;2023-04-07T04:07:42;9.83;;;8.77;;
16189;SDS011;41754;51.498;7.540;2023-04-07T04:10:10;9.93;;;8.93;;
16189;SDS011;41754;51.498;7.540;2023-04-07T04:12:43;9.37;;;8.40;;
16189;SDS011;41754;51.498;7.540;2023-04-07T04:15:12;8.87;;;8.00;;
16189;SDS011;41754;51.498;7.540;2023-04-07T04:17:40;8.10;;;7.33;;
16189;SDS011;41754;51.498;7.540;2023-04-07T04:20:08;9.40;;;8.50;;
16189;SDS011;41754;51.498;7.540;2023-04-07T04:22:45;10.03;;;9.07;;
16189;SDS011;41754;51.498;7.540;2023-04-07T04:25:13;10.23;;;9.23;;
16189;SDS011;41754;51.498;7.540;2023-04-07T04:27:48;10.10;;;8.83;;
16189;SDS011;41754;51.498;7.540;2023-04-07T04:30:19;10.67;;;8.73;;
16189;SDS011;41754;51.498;7.540;2023-04-07T04:32:50;9.47;;;8.57;;
16189;SDS011;41754;51.498;7.540;2023-04-07T04:35:26;8.97;;;8.07;;
16189;SDS011;41754;51.498;7.540;2023-04-07T04:38:09;8.63;;;7.70;;
16189;SDS011;41754;51.498;7.540;2023-04-07T04:40:42;9.47;;;8.57;;
16189;SDS011;41754;51.498;7.540;2023-04-07T04:43:12;9.20;;;8.00;;
16189;SDS011;41754;51.498;7.540;2023-04-07T04:45:40;8.63;;;7.83;;
16189;SDS011;41754;51.498;7.540;2023-04-07T04:48:11;8.30;;;7.50;;
16189;SDS011;41754;51.498;7.540;2023-04-07T04:50:40;9.30;;;8.33;;
16189;SDS011;41754;51.498;7.540;2023-04-07T04:53:11;8.93;;;8.07;;
16189;SDS011;41754;51.498;7.540;2023-04-07T04:55:46;8.57;;;7.77;;
16189;SDS011;41754;51.498;7.540;2023-04-07T04:58:23;8.50;;;7.70;;
16189;SDS011;41754;51.498;7.540;2023-04-07T05:00:54;8.67;;;7.87;;
16189;SDS011;41754;51.498;7.540;2023-04-07T05:03:28;9.37;;;7.93;;
16189;SDS011;41754;51.498;7.540;2023-04-07T05:06:01;8.23;;;7.43;;
16189;SDS011;41754;51.498;7.540;2023-04-07T05:08:30;9.03;;;8.17;;
16189;SDS011;41754;51.498;7.540;2023-04-07T05:10:58;9.40;;;8.43;;
16189;SDS011;41754;51.498;7.540;2023-04-07T05:13:31;10.63;;;9.10;;
16189;SDS011;41754;51.498;7.540;2023-04-07T05:16:02;10.20;;;9.20;;
16189;SDS011;41754;51.498;7.540;2023-04-07T05:18:30;9.50;;;8.60;;
16189;SDS011;41754;51.498;7.540;2023-04-07T05:20:58;9.60;;;8.67;;
16189;SDS011;41754;51.498;7.540;2023-04-07T05:23:27;9.50;;;8.60;;
16189;SDS011;41754;51.498;7.540;2023-04-07T05:25:55;9.50;;;8.60;;
16189;SDS011;41754;51.498;7.540;2023-04-07T05:28:23;10.53;;;9.53;;
16189;SDS011;41754;51.498;7.540;2023-04-07T05:30:55;11.03;;;9.87;;
16189;SDS011;41754;51.498;7.540;2023-04-07T05:33:28;10.53;;;9.40;;
16189;SDS011;41754;51.498;7.540;2023-04-07T05:35:56;10.00;;;9.00;;
16189;SDS011;41754;51.498;7.540;2023-04-07T05:38:24;10.17;;;9.00;;
16189;SDS011;41754;51.498;7.540;2023-04-07T05:40:56;10.27;;;9.27;;
16189;SDS011;41754;51.498;7.540;2023-04-07T05:43:29;9.10;;;8.20;;
16189;SDS011;41754;51.498;7.540;2023-04-07T05:45:59;10.30;;;9.27;;
16189;SDS011;41754;51.498;7.540;2023-04-07T05:48:27;10.37;;;9.27;;
16189;SDS011;41754;51.498;7.540;2023-04-07T05:50:55;9.77;;;8.87;;
16189;SDS011;41754;51.498;7.540;2023-04-07T05:53:23;10.37;;;9.37;;
16189;SDS011;41754;51.498;7.540;2023-04-07T05:55:51;11.23;;;10.03;;
16189;SDS011;41754;51.498;7.540;2023-04-07T05:58:37;12.10;;;10.90;;
16189;SDS011;41754;51.498;7.540;2023-04-07T06:01:08;11.80;;;10.60;;
16189;SDS011;41754;51.498;7.540;2023-04-07T06:03:36;11.60;;;10.30;;
16189;SDS011;41754;51.498;7.540;2023-04-07T06:06:13;13.53;;;12.13;;
16189;SDS011;41754;51.498;7.540;2023-04-07T06:08:43;15.83;;;12.50;;
16189;SDS011;41754;51.498;7.540;2023-04-07T06:11:11;16.23;;;13.00;;
16189;SDS011;41754;51.498;7.540;2023-04-07T06:13:39;14.60;;;13.10;;
16189;SDS011;41754;51.498;7.540;2023-04-07T06:16:08;17.03;;;14.43;;
16189;SDS011;41754;51.498;7.540;2023-04-07T06:18:36;18.70;;;14.47;;
16189;SDS011;41754;51.498;7.540;2023-04-07T06:21:05;16.53;;;13.83;;
16189;SDS011;41754;51.498;7.540;2023-04-07T06:23:33;16.47;;;13.80;;
16189;SDS011;41754;51.498;7.540;2023-04-07T06:26:04;16.67;;;13.43;;
16189;SDS011;41754;51.498;7.540;2023-04-07T06:28:32;16.80;;;13.27;;
16189;SDS011;41754;51.498;7.540;2023-04-07T06:31:00;19.67;;;13.37;;
16189;SDS011;41754;51.498;7.540;2023-04-07T06:33:29;19.23;;;13.20;;
16189;SDS011;41754;51.498;7.540;2023-04-07T06:35:57;19.13;;;13.97;;
16189;SDS011;41754;51.498;7.540;2023-04-07T06:38:25;16.30;;;13.37;;
16189;SDS011;41754;51.498;7.540;2023-04-07T06:40:53;17.23;;;12.47;;
16189;SDS011;41754;51.498;7.540;2023-04-07T06:43:21;15.43;;;12.33;;
16189;SDS011;41754;51.498;7.540;2023-04-07T06:45:54;15.43;;;11.77;;
16189;SDS011;41754;51.498;7.540;2023-04-07T06:48:22;15.67;;;12.10;;
16189;SDS011;41754;51.498;7.540;2023-04-07T06:50:51;14.77;;;11.60;;
16189;SDS011;41754;51.498;7.540;2023-04-07T06:53:19;15.70;;;12.20;;
16189;SDS011;41754;51.498;7.540;2023-04-07T06:55:47;17.87;;;12.23;;
16189;SDS011;41754;51.498;7.540;2023-04-07T06:58:14;15.03;;;12.37;;
16189;SDS011;41754;51.498;7.540;2023-04-07T07:00:42;18.37;;;12.27;;
16189;SDS011;41754;51.498;7.540;2023-04-07T07:03:10;15.43;;;12.37;;
16189;SDS011;41754;51.498;7.540;2023-04-07T07:05:38;15.63;;;12.33;;
16189;SDS011;41754;51.498;7.540;2023-04-07T07:08:07;15.57;;;12.37;;
16189;SDS011;41754;51.498;7.540;2023-04-07T07:10:35;15.37;;;12.20;;
16189;SDS011;41754;51.498;7.540;2023-04-07T07:13:03;14.70;;;12.30;;
16189;SDS011;41754;51.498;7.540;2023-04-07T07:15:31;13.57;;;12.17;;
16189;SDS011;41754;51.498;7.540;2023-04-07T07:17:59;15.73;;;13.00;;
16189;SDS011;41754;51.498;7.540;2023-04-07T07:20:27;14.77;;;12.03;;
16189;SDS011;41754;51.498;7.540;2023-04-07T07:22:54;13.47;;;12.07;;
16189;SDS011;41754;51.498;7.540;2023-04-07T07:25:25;13.83;;;11.63;;
16189;SDS011;41754;51.498;7.540;2023-04-07T07:27:53;13.73;;;11.47;;
16189;SDS011;41754;51.498;7.540;2023-04-07T07:30:21;14.23;;;11.73;;
16189;SDS011;41754;51.498;7.540;2023-04-07T07:32:50;13.93;;;11.37;;
16189;SDS011;41754;51.498;7.540;2023-04-07T07:35:19;13.93;;;11.93;;
16189;SDS011;41754;51.498;7.540;2023-04-07T07:37:48;13.10;;;11.70;;
16189;SDS011;41754;51.498;7.540;2023-04-07T07:40:16;14.07;;;12.10;;
16189;SDS011;41754;51.498;7.540;2023-04-07T07:42:46;13.03;;;11.63;;
16189;SDS011;41754;51.498;7.540;2023-04-07T07:45:14;14.37;;;12.93;;
16189;SDS011;41754;51.498;7.540;2023-04-07T07:47:44;14.10;;;12.63;;
16189;SDS011;41754;51.498;7.540;2023-04-07T07:50:13;14.97;;;12.97;;
16189;SDS011;41754;51.498;7.540;2023-04-07T07:52:41;14.17;;;12.67;;
16189;SDS011;41754;51.498;7.540;2023-04-07T07:55:08;13.37;;;11.93;;
16189;SDS011;41754;51.498;7.540;2023-04-07T07:57:36;14.27;;;11.93;;
16189;SDS011;41754;51.498;7.540;2023-04-07T08:00:06;13.20;;;11.37;;
16189;SDS011;41754;51.498;7.540;2023-04-07T08:02:40;14.53;;;12.67;;
16189;SDS011;41754;51.498;7.540;2023-04-07T08:05:08;12.67;;;11.37;;
16189;SDS011;41754;51.498;7.540;2023-04-07T08:07:36;13.27;;;11.70;;
16189;SDS011;41754;51.498;7.540;2023-04-07T08:10:04;14.47;;;11.70;;
16189;SDS011;41754;51.498;7.540;2023-04-07T08:12:33;13.43;;;11.83;;
16189;SDS011;41754;51.498;7.540;2023-04-07T08:15:01;12.13;;;10.77;;
16189;SDS011;41754;51.498;7.540;2023-04-07T08:17:30;12.67;;;11.00;;
16189;SDS011;41754;51.498;7.540;2023-04-07T08:19:59;13.33;;;11.53;;
16189;SDS011;41754;51.498;7.540;2023-04-07T08:22:27;12.47;;;10.80;;
16189;SDS011;41754;51.498;7.540;2023-04-07T08:24:55;12.70;;;11.40;;
16189;SDS011;41754;51.498;7.540;2023-04-07T08:27:23;14.47;;;12.33;;
16189;SDS011;41754;51.498;7.540;2023-04-07T08:29:57;13.77;;;11.67;;
16189;SDS011;41754;51.498;7.540;2023-04-07T08:32:33;16.83;;;14.27;;
16189;SDS011;41754;51.498;7.540;2023-04-07T08:35:03;12.17;;;10.70;;
16189;SDS011;41754;51.498;7.540;2023-04-07T08:37:31;11.07;;;10.07;;
16189;SDS011;41754;51.498;7.540;2023-04-07T08:40:00;10.80;;;9.63;;
16189;SDS011;41754;51.498;7.540;2023-04-07T08:42:29;10.73;;;9.67;;
16189;SDS011;41754;51.498;7.540;2023-04-07T08:45:00;10.63;;;8.90;;
16189;SDS011;41754;51.498;7.540;2023-04-07T08:47:30;10.52;;;9.43;;
16189;SDS011;41754;51.498;7.540;2023-04-07T08:50:01;10.27;;;9.20;;
16189;SDS011;41754;51.498;7.540;2023-04-07T08:52:32;10.13;;;8.83;;
16189;SDS011;41754;51.498;7.540;2023-04-07T08:55:02;10.33;;;9.33;;
16189;SDS011;41754;51.498;7.540;2023-04-07T08:57:32;11.30;;;10.10;;
16189;SDS011;41754;51.498;7.540;2023-04-07T09:00:01;10.45;;;9.43;;
16189;SDS011;41754;51.498;7.540;2023-04-07T09:02:31;10.07;;;9.07;;
16189;SDS011;41754;51.498;7.540;2023-04-07T09:05:03;9.70;;;8.70;;
16189;SDS011;41754;51.498;7.540;2023-04-07T09:07:32;10.43;;;9.33;;
16189;SDS011;41754;51.498;7.540;2023-04-07T09:10:01;10.35;;;9.25;;
16189;SDS011;41754;51.498;7.540;2023-04-07T09:12:30;10.37;;;9.37;;
16189;SDS011;41754;51.498;7.540;2023-04-07T09:14:58;11.00;;;9.90;;
16189;SDS011;41754;51.498;7.540;2023-04-07T09:17:27;11.17;;;9.93;;
16189;SDS011;41754;51.498;7.540;2023-04-07T09:19:55;10.83;;;9.70;;
16189;SDS011;41754;51.498;7.540;2023-04-07T09:22:34;10.40;;;9.23;;
16189;SDS011;41754;51.498;7.540;2023-04-07T09:25:12;11.07;;;9.93;;
16189;SDS011;41754;51.498;7.540;2023-04-07T09:27:52;14.30;;;12.53;;
16189;SDS011;41754;51.498;7.540;2023-04-07T09:30:21;12.87;;;11.40;;
16189;SDS011;41754;51.498;7.540;2023-04-07T09:32:50;15.37;;;12.53;;
16189;SDS011;41754;51.498;7.540;2023-04-07T09:35:18;15.30;;;13.17;;
16189;SDS011;41754;51.498;7.540;2023-04-07T09:38:02;14.07;;;12.60;;
16189;SDS011;41754;51.498;7.540;2023-04-07T09:40:31;15.18;;;13.57;;
16189;SDS011;41754;51.498;7.540;2023-04-07T09:43:00;16.90;;;15.10;;
16189;SDS011;41754;51.498;7.540;2023-04-07T09:45:29;14.83;;;13.20;;
16189;SDS011;41754;51.498;7.540;2023-04-07T09:48:05;14.73;;;13.20;;
16189;SDS011;41754;51.498;7.540;2023-04-07T09:50:34;13.50;;;12.13;;
16189;SDS011;41754;51.498;7.540;2023-04-07T09:53:04;13.60;;;12.20;;
16189;SDS011;41754;51.498;7.540;2023-04-07T09:55:32;13.52;;;12.23;;
16189;SDS011;41754;51.498;7.540;2023-04-07T09:58:01;12.80;;;11.60;;
16189;SDS011;41754;51.498;7.540;2023-04-07T10:00:31;13.87;;;12.47;;
16189;SDS011;41754;51.498;7.540;2023-04-07T10:02:59;14.53;;;13.13;;
16189;SDS011;41754;51.498;7.540;2023-04-07T10:05:28;13.43;;;12.13;;
16189;SDS011;41754;51.498;7.540;2023-04-07T10:07:59;15.30;;;13.80;;
16189;SDS011;41754;51.498;7.540;2023-04-07T10:10:28;14.35;;;13.05;;
16189;SDS011;41754;51.498;7.540;2023-04-07T10:12:57;13.27;;;11.97;;
16189;SDS011;41754;51.498;7.540;2023-04-07T10:15:25;13.90;;;12.70;;
16189;SDS011;41754;51.498;7.540;2023-04-07T10:17:53;13.20;;;11.90;;
16189;SDS011;41754;51.498;7.540;2023-04-07T10:20:22;12.80;;;11.70;;
16189;SDS011;41754;51.498;7.540;2023-04-07T10:22:51;11.30;;;10.33;;
16189;SDS011;41754;51.498;7.540;2023-04-07T10:25:23;12.77;;;11.57;;
16189;SDS011;41754;51.498;7.540;2023-04-07T10:27:55;12.20;;;11.00;;
16189;SDS011;41754;51.498;7.540;2023-04-07T10:30:26;13.30;;;12.10;;
16189;SDS011;41754;51.498;7.540;2023-04-07T10:32:59;11.97;;;10.87;;
16189;SDS011;41754;51.498;7.540;2023-04-07T10:35:27;15.00;;;13.43;;
16189;SDS011;41754;51.498;7.540;2023-04-07T10:38:08;14.20;;;12.90;;
16189;SDS011;41754;51.498;7.540;2023-04-07T10:40:39;12.83;;;11.63;;
16189;SDS011;41754;51.498;7.540;2023-04-07T10:43:09;12.67;;;11.47;;
16189;SDS011;41754;51.498;7.540;2023-04-07T10:45:56;13.47;;;12.17;;
16189;SDS011;41754;51.498;7.540;2023-04-07T10:48:25;12.50;;;11.40;;
16189;SDS011;41754;51.498;7.540;2023-04-07T10:51:13;13.13;;;11.93;;
16189;SDS011;41754;51.498;7.540;2023-04-07T11:00:13;10.27;;;9.37;;
16189;SDS011;41754;51.498;7.540;2023-04-07T11:02:43;12.10;;;9.20;;
16189;SDS011;41754;51.498;7.540;2023-04-07T11:05:19;9.20;;;8.40;;
16189;SDS011;41754;51.498;7.540;2023-04-07T11:07:49;8.57;;;7.78;;
16189;SDS011;41754;51.498;7.540;2023-04-07T11:10:20;8.47;;;7.67;;
16189;SDS011;41754;51.498;7.540;2023-04-07T11:13:02;9.00;;;8.20;;
16189;SDS011;41754;51.498;7.540;2023-04-07T11:15:33;8.60;;;7.83;;
16189;SDS011;41754;51.498;7.540;2023-04-07T11:18:09;10.63;;;9.63;;
16189;SDS011;41754;51.498;7.540;2023-04-07T11:20:42;9.43;;;8.43;;
16189;SDS011;41754;51.498;7.540;2023-04-07T11:23:15;11.53;;;10.43;;
16189;SDS011;41754;51.498;7.540;2023-04-07T11:25:44;13.67;;;12.13;;
16189;SDS011;41754;51.498;7.540;2023-04-07T11:28:14;7.95;;;7.35;;
16189;SDS011;41754;51.498;7.540;2023-04-07T11:30:47;8.65;;;7.85;;
16189;SDS011;41754;51.498;7.540;2023-04-07T11:33:17;9.68;;;8.73;;
16189;SDS011;41754;51.498;7.540;2023-04-07T11:35:50;8.93;;;8.13;;
16189;SDS011;41754;51.498;7.540;2023-04-07T11:38:21;20.55;;;16.10;;
16189;SDS011;41754;51.498;7.540;2023-04-07T11:40:50;9.65;;;8.65;;
16189;SDS011;41754;51.498;7.540;2023-04-07T11:43:18;7.30;;;6.63;;
16189;SDS011;41754;51.498;7.540;2023-04-07T11:46:08;6.82;;;6.32;;
16189;SDS011;41754;51.498;7.540;2023-04-07T11:48:38;6.60;;;6.00;;
16189;SDS011;41754;51.498;7.540;2023-04-07T11:51:14;6.78;;;6.18;;
16189;SDS011;41754;51.498;7.540;2023-04-07T11:53:42;7.50;;;6.85;;
16189;SDS011;41754;51.498;7.540;2023-04-07T11:56:13;6.68;;;6.18;;
16189;SDS011;41754;51.498;7.540;2023-04-07T11:58:46;6.05;;;5.55;;
16189;SDS011;41754;51.498;7.540;2023-04-07T12:01:16;4.78;;;4.38;;
16189;SDS011;41754;51.498;7.540;2023-04-07T12:03:54;4.32;;;3.83;;
16189;SDS011;41754;51.498;7.540;2023-04-07T12:06:25;3.83;;;3.47;;
16189;SDS011;41754;51.498;7.540;2023-04-07T12:08:55;3.30;;;3.08;;
16189;SDS011;41754;51.498;7.540;2023-04-07T12:11:23;3.35;;;3.05;;
16189;SDS011;41754;51.498;7.540;2023-04-07T12:13:51;3.17;;;2.88;;
16189;SDS011;41754;51.498;7.540;2023-04-07T12:16:21;4.28;;;3.00;;
16189;SDS011;41754;51.498;7.540;2023-04-07T12:18:49;3.10;;;2.85;;
16189;SDS011;41754;51.498;7.540;2023-04-07T12:21:17;3.70;;;3.40;;
16189;SDS011;41754;51.498;7.540;2023-04-07T12:23:45;3.63;;;3.28;;
16189;SDS011;41754;51.498;7.540;2023-04-07T12:26:14;3.97;;;3.60;;
16189;SDS011;41754;51.498;7.540;2023-04-07T12:28:42;2.53;;;2.25;;
16189;SDS011;41754;51.498;7.540;2023-04-07T12:31:10;2.63;;;2.38;;
16189;SDS011;41754;51.498;7.540;2023-04-07T12:33:39;2.27;;;2.07;;
16189;SDS011;41754;51.498;7.540;2023-04-07T12:36:07;1.83;;;1.73;;
16189;SDS011;41754;51.498;7.540;2023-04-07T12:38:35;2.10;;;1.80;;
16189;SDS011;41754;51.498;7.540;2023-04-07T12:41:03;1.98;;;1.83;;
16189;SDS011;41754;51.498;7.540;2023-04-07T12:43:31;2.20;;;1.83;;
16189;SDS011;41754;51.498;7.540;2023-04-07T12:45:59;2.40;;;2.00;;
16189;SDS011;41754;51.498;7.540;2023-04-07T12:48:27;1.85;;;1.75;;
16189;SDS011;41754;51.498;7.540;2023-04-07T12:50:56;2.00;;;1.60;;
16189;SDS011;41754;51.498;7.540;2023-04-07T12:53:24;2.00;;;1.90;;
16189;SDS011;41754;51.498;7.540;2023-04-07T12:55:52;1.95;;;1.75;;
16189;SDS011;41754;51.498;7.540;2023-04-07T12:58:20;2.97;;;1.70;;
16189;SDS011;41754;51.498;7.540;2023-04-07T13:00:48;1.48;;;1.38;;
16189;SDS011;41754;51.498;7.540;2023-04-07T13:03:16;14.52;;;9.57;;
16189;SDS011;41754;51.498;7.540;2023-04-07T13:05:44;2.35;;;2.15;;
16189;SDS011;41754;51.498;7.540;2023-04-07T13:08:13;1.98;;;1.80;;
16189;SDS011;41754;51.498;7.540;2023-04-07T13:10:41;2.40;;;1.60;;
16189;SDS011;41754;51.498;7.540;2023-04-07T13:13:09;1.50;;;1.40;;
16189;SDS011;41754;51.498;7.540;2023-04-07T13:15:36;2.22;;;1.30;;
16189;SDS011;41754;51.498;7.540;2023-04-07T13:18:04;1.50;;;1.40;;
16189;SDS011;41754;51.498;7.540;2023-04-07T13:20:33;2.33;;;1.60;;
16189;SDS011;41754;51.498;7.540;2023-04-07T13:23:01;1.65;;;1.55;;
16189;SDS011;41754;51.498;7.540;2023-04-07T13:25:36;1.52;;;1.42;;
16189;SDS011;41754;51.498;7.540;2023-04-07T13:28:04;1.73;;;1.50;;
16189;SDS011;41754;51.498;7.540;2023-04-07T13:30:32;1.52;;;1.42;;
16189;SDS011;41754;51.498;7.540;2023-04-07T13:33:00;1.90;;;1.38;;
16189;SDS011;41754;51.498;7.540;2023-04-07T13:35:28;1.48;;;1.38;;
16189;SDS011;41754;51.498;7.540;2023-04-07T13:38:01;1.65;;;1.55;;
16189;SDS011;41754;51.498;7.540;2023-04-07T13:40:29;1.70;;;1.60;;
16189;SDS011;41754;51.498;7.540;2023-04-07T13:42:59;1.50;;;1.40;;
16189;SDS011;41754;51.498;7.540;2023-04-07T13:45:26;1.40;;;1.40;;
16189;SDS011;41754;51.498;7.540;2023-04-07T13:47:54;2.10;;;2.00;;
16189;SDS011;41754;51.498;7.540;2023-04-07T13:50:22;2.22;;;2.03;;
16189;SDS011;41754;51.498;7.540;2023-04-07T13:52:51;1.55;;;1.40;;
16189;SDS011;41754;51.498;7.540;2023-04-07T13:55:18;1.92;;;1.50;;
16189;SDS011;41754;51.498;7.540;2023-04-07T13:57:46;2.60;;;1.50;;
16189;SDS011;41754;51.498;7.540;2023-04-07T14:00:16;1.92;;;1.52;;
16189;SDS011;41754;51.498;7.540;2023-04-07T14:02:44;1.73;;;1.63;;
16189;SDS011;41754;51.498;7.540;2023-04-07T14:05:13;1.95;;;1.63;;
16189;SDS011;41754;51.498;7.540;2023-04-07T14:07:41;1.60;;;1.50;;
16189;SDS011;41754;51.498;7.540;2023-04-07T14:10:09;1.75;;;1.50;;
16189;SDS011;41754;51.498;7.540;2023-04-07T14:12:37;2.28;;;1.63;;
16189;SDS011;41754;51.498;7.540;2023-04-07T14:15:05;1.80;;;1.70;;
16189;SDS011;41754;51.498;7.540;2023-04-07T14:17:35;1.70;;;1.60;;
16189;SDS011;41754;51.498;7.540;2023-04-07T14:20:04;1.83;;;1.73;;
16189;SDS011;41754;51.498;7.540;2023-04-07T14:22:33;2.42;;;2.05;;
16189;SDS011;41754;51.498;7.540;2023-04-07T14:25:01;1.50;;;1.40;;
16189;SDS011;41754;51.498;7.540;2023-04-07T14:27:29;1.65;;;1.55;;
16189;SDS011;41754;51.498;7.540;2023-04-07T14:29:57;1.75;;;1.65;;
16189;SDS011;41754;51.498;7.540;2023-04-07T14:32:25;1.75;;;1.65;;
16189;SDS011;41754;51.498;7.540;2023-04-07T14:34:56;1.98;;;1.60;;
16189;SDS011;41754;51.498;7.540;2023-04-07T14:37:24;1.70;;;1.60;;
16189;SDS011;41754;51.498;7.540;2023-04-07T14:39:53;3.55;;;1.95;;
16189;SDS011;41754;51.498;7.540;2023-04-07T14:42:24;2.42;;;2.20;;
16189;SDS011;41754;51.498;7.540;2023-04-07T14:44:52;2.10;;;1.90;;
16189;SDS011;41754;51.498;7.540;2023-04-07T14:47:20;2.38;;;1.90;;
16189;SDS011;41754;51.498;7.540;2023-04-07T14:49:48;2.10;;;2.00;;
16189;SDS011;41754;51.498;7.540;2023-04-07T14:52:20;1.60;;;1.50;;
16189;SDS011;41754;51.498;7.540;2023-04-07T14:54:48;2.30;;;1.92;;
16189;SDS011;41754;51.498;7.540;2023-04-07T14:57:16;1.60;;;1.50;;
16189;SDS011;41754;51.498;7.540;2023-04-07T14:59:43;3.03;;;1.98;;
16189;SDS011;41754;51.498;7.540;2023-04-07T15:02:11;1.70;;;1.60;;